Time;durP1;ratioP1;P1;durP2;ratioP2;P2;SDS_P1;SDS_P2;PMS_P1;PMS_P2;Temp;Humidity;BMP_temperature;BMP_pressure;BME280_temperature;BME280_humidity;BME280_pressure;Samples;Min_cycle;Max_cycle;Signal;HPM_P1;HPM_P2
2024/01/08 00:00:44;;;;;;;12.02;4.53;;;4.20;99.90;;;3.40;100.00;102097.34;4135843;28;20022;-68
2024/01/08 00:02:45;;;;;;;9.65;4.57;;;4.20;99.90;;;3.35;100.00;102105.38;4135760;28;20038;-68
2024/01/08 00:04:46;;;;;;;9.27;4.90;;;4.20;99.90;;;3.34;100.00;102111.50;4134286;28;20026;-68
2024/01/08 00:06:47;;;;;;;7.55;4.22;;;4.20;99.90;;;3.25;100.00;102104.16;4135990;28;20037;-68
2024/01/08 00:08:47;;;;;;;12.23;4.32;;;4.10;99.90;;;3.20;100.00;102094.84;4135667;28;20019;-68
2024/01/08 00:10:48;;;;;;;11.25;5.20;;;4.00;99.90;;;3.17;100.00;102098.47;4135303;28;20042;-68
2024/01/08 00:12:49;;;;;;;8.13;4.43;;;4.00;99.90;;;3.10;100.00;102088.41;4135435;28;20556;-68
2024/01/08 00:14:50;;;;;;;10.93;4.57;;;3.90;99.90;;;3.05;100.00;102095.59;4135727;28;20027;-68
2024/01/08 00:16:51;;;;;;;11.68;4.47;;;3.90;99.90;;;3.03;100.00;102098.31;4135792;28;20042;-68
2024/01/08 00:18:52;;;;;;;11.30;4.93;;;3.90;99.90;;;3.00;100.00;102093.25;4135814;28;20024;-67
2024/01/08 00:20:54;;;;;;;11.10;5.15;;;3.80;99.90;;;3.06;100.00;102090.34;4134367;28;20378;-68
2024/01/08 00:22:55;;;;;;;9.32;5.03;;;3.80;99.90;;;3.07;100.00;102089.41;4135785;28;20041;-68
2024/01/08 00:24:56;;;;;;;10.45;4.78;;;3.90;99.90;;;3.08;100.00;102085.88;4134387;28;20038;-68
2024/01/08 00:26:56;;;;;;;11.55;5.25;;;3.90;99.90;;;3.08;100.00;102085.88;4135749;28;20081;-68
2024/01/08 00:28:58;;;;;;;12.10;4.43;;;3.90;99.90;;;3.13;100.00;102083.91;4135567;28;20037;-68
2024/01/08 00:30:59;;;;;;;14.50;4.68;;;3.90;99.90;;;3.08;100.00;102079.81;4135917;28;20577;-68
2024/01/08 00:33:00;;;;;;;9.27;4.60;;;3.90;99.90;;;3.07;100.00;102086.81;4134501;28;20030;-68
2024/01/08 00:35:01;;;;;;;13.63;5.18;;;3.90;99.90;;;3.05;100.00;102086.03;4134505;28;20382;-68
2024/01/08 00:37:03;;;;;;;10.93;5.40;;;3.80;99.90;;;3.03;100.00;102074.00;4137800;28;20026;-68
2024/01/08 00:39:03;;;;;;;10.63;4.45;;;3.90;99.90;;;3.01;100.00;102084.50;4137379;28;20030;-68
2024/01/08 00:41:04;;;;;;;8.63;4.75;;;3.80;99.90;;;3.02;100.00;102090.53;4138104;28;20031;-68
2024/01/08 00:43:05;;;;;;;11.80;4.80;;;3.90;99.90;;;3.07;100.00;102092.03;4138435;28;20406;-68
2024/01/08 00:45:07;;;;;;;8.95;4.50;;;3.90;99.90;;;3.14;100.00;102093.41;4138503;28;20034;-68
2024/01/08 00:47:08;;;;;;;10.98;4.63;;;3.90;99.90;;;3.13;100.00;102083.91;4138388;28;20398;-68
2024/01/08 00:49:09;;;;;;;10.25;4.93;;;3.90;99.90;;;3.13;100.00;102089.13;4138331;28;20042;-68
2024/01/08 00:51:10;;;;;;;8.88;4.40;;;3.90;99.90;;;3.16;100.00;102088.97;4138300;28;20037;-68
2024/01/08 00:53:11;;;;;;;11.48;5.30;;;3.90;99.90;;;3.22;100.00;102083.47;4138070;28;20034;-68
2024/01/08 00:55:12;;;;;;;14.85;5.38;;;4.00;99.90;;;3.24;100.00;102080.75;4137845;28;20101;-68
2024/01/08 00:57:13;;;;;;;16.02;5.22;;;4.00;99.90;;;3.33;100.00;102077.69;4137119;28;20023;-67
2024/01/08 00:59:14;;;;;;;9.15;4.95;;;4.00;99.90;;;3.33;100.00;102081.16;4138184;28;20109;-68
2024/01/08 01:01:15;;;;;;;14.10;5.18;;;4.10;99.90;;;3.34;100.00;102077.59;4136974;28;20465;-68
2024/01/08 01:03:16;;;;;;;10.15;4.72;;;4.10;99.90;;;3.34;100.00;102080.19;4137893;28;20105;-68
2024/01/08 01:05:16;;;;;;;13.45;4.80;;;4.10;99.90;;;3.33;100.00;102078.53;4138104;28;20026;-68
2024/01/08 01:07:17;;;;;;;11.45;4.93;;;4.10;99.90;;;3.37;100.00;102081.00;4136673;28;20028;-68
2024/01/08 01:09:18;;;;;;;12.25;4.68;;;4.10;99.90;;;3.41;100.00;102082.50;4136675;28;20058;-67
2024/01/08 01:11:20;;;;;;;11.77;4.82;;;4.20;99.90;;;3.43;100.00;102080.69;4137405;28;20576;-68
2024/01/08 01:13:21;;;;;;;11.88;5.00;;;4.20;99.90;;;3.45;100.00;102081.44;4137857;28;20437;-68
2024/01/08 01:15:21;;;;;;;9.05;4.18;;;4.10;99.90;;;3.44;100.00;102082.34;4137891;28;20027;-68
2024/01/08 01:17:22;;;;;;;13.32;4.68;;;4.20;99.90;;;3.38;100.00;102080.91;4137835;28;20026;-68
2024/01/08 01:19:23;;;;;;;12.60;5.60;;;4.20;99.90;;;3.30;100.00;102070.88;4137637;28;20049;-68
2024/01/08 01:21:24;;;;;;;7.88;5.20;;;4.10;99.90;;;3.23;100.00;102073.84;4137888;28;20030;-68
2024/01/08 01:23:25;;;;;;;13.55;5.13;;;4.10;99.90;;;3.15;100.00;102071.63;4137826;28;20054;-68
2024/01/08 01:25:26;;;;;;;11.60;4.65;;;4.00;99.90;;;3.09;100.00;102078.91;4136281;28;20038;-68
2024/01/08 01:27:26;;;;;;;7.43;4.20;;;3.90;99.90;;;3.04;100.00;102081.75;4137534;28;20398;-68
2024/01/08 01:29:27;;;;;;;12.00;5.00;;;3.80;99.90;;;2.98;100.00;102087.25;4137694;28;20134;-68
2024/01/08 01:31:30;;;;;;;9.18;4.68;;;3.80;99.90;;;2.90;100.00;102078.13;4137848;28;20038;-68
2024/01/08 01:33:31;;;;;;;10.65;4.60;;;3.70;99.90;;;2.87;100.00;102073.88;4136499;28;20498;-68
2024/01/08 01:35:32;;;;;;;8.10;4.25;;;3.70;99.90;;;2.86;100.00;102072.22;4136192;28;20051;-68
2024/01/08 01:37:33;;;;;;;11.70;5.03;;;3.70;99.90;;;2.81;100.00;102071.56;4136465;28;20485;-68
2024/01/08 01:39:34;;;;;;;12.30;5.05;;;3.60;99.90;;;2.78;100.00;102076.94;4136348;28;20109;-68
2024/01/08 01:41:35;;;;;;;12.82;5.13;;;3.60;99.90;;;2.75;100.00;102077.09;4137658;28;20037;-68
2024/01/08 01:43:36;;;;;;;12.77;5.82;;;3.50;99.90;;;2.67;100.00;102079.22;4136264;28;20041;-68
2024/01/08 01:45:36;;;;;;;11.55;4.75;;;3.50;99.90;;;2.61;100.00;102071.69;4137548;28;20081;-68
2024/01/08 01:47:37;;;;;;;11.60;4.90;;;3.40;99.90;;;2.60;100.00;102067.38;4136147;28;20030;-68
2024/01/08 01:49:39;;;;;;;9.75;4.30;;;3.40;99.90;;;2.54;100.00;102060.72;4136044;28;20030;-68
2024/01/08 01:51:43;;;;;;;13.07;6.07;;;3.30;99.90;;;2.54;100.00;102067.72;4136174;28;20026;-68
2024/01/08 01:53:45;;;;;;;10.85;5.00;;;3.30;99.90;;;2.51;100.00;102073.88;4137290;28;20030;-68
2024/01/08 01:55:46;;;;;;;19.25;6.53;;;3.30;99.90;;;2.51;100.00;102062.66;4119574;28;20073;-68
2024/01/08 01:57:47;;;;;;;13.90;4.85;;;3.30;99.90;;;2.48;100.00;102068.00;4135832;28;20022;-69
2024/01/08 01:59:48;;;;;;;18.33;5.88;;;3.20;99.90;;;2.44;100.00;102076.84;4135875;28;20030;-69
2024/01/08 02:01:50;;;;;;;13.82;6.13;;;3.20;99.90;;;2.42;100.00;102069.09;4136077;28;20430;-69
2024/01/08 02:03:51;;;;;;;11.05;5.05;;;3.20;99.90;;;2.41;100.00;102066.59;4137848;28;20057;-68
2024/01/08 02:05:53;;;;;;;14.82;5.93;;;3.10;99.90;;;2.41;100.00;102074.41;4136002;28;20054;-68
2024/01/08 02:07:56;;;;;;;11.95;5.70;;;3.10;99.90;;;2.37;100.00;102073.69;4135801;28;20076;-68
2024/01/08 02:09:57;;;;;;;13.90;6.00;;;3.10;99.90;;;2.34;100.00;102070.38;4135565;28;20033;-68
2024/01/08 02:11:58;;;;;;;16.70;6.03;;;3.10;99.90;;;2.34;100.00;102072.97;4135695;28;20046;-68
2024/01/08 02:13:59;;;;;;;11.65;6.03;;;3.10;99.90;;;2.38;100.00;102072.78;4135612;28;20520;-68
2024/01/08 02:16:00;;;;;;;12.00;5.85;;;3.10;99.90;;;2.32;100.00;102074.81;4136775;28;20023;-68
2024/01/08 02:18:01;;;;;;;14.13;6.68;;;3.10;99.90;;;2.31;100.00;102076.56;4135781;28;20026;-68
2024/01/08 02:20:02;;;;;;;13.55;6.50;;;3.10;99.90;;;2.28;100.00;102070.66;4135638;28;20023;-68
2024/01/08 02:22:03;;;;;;;18.67;7.43;;;3.00;99.90;;;2.27;100.00;102074.19;4136873;28;20477;-68
2024/01/08 02:24:05;;;;;;;13.65;6.40;;;3.00;99.90;;;2.22;100.00;102066.59;4136704;28;20045;-68
2024/01/08 02:26:09;;;;;;;17.98;7.47;;;3.00;99.90;;;2.17;100.00;102069.41;4136640;28;20080;-68
2024/01/08 02:28:09;;;;;;;19.55;6.72;;;2.90;99.90;;;2.20;100.00;102071.88;4135545;28;20042;-68
2024/01/08 02:30:11;;;;;;;12.73;6.15;;;3.00;99.90;;;2.09;100.00;102066.28;4135399;28;20121;-68
2024/01/08 02:32:13;;;;;;;13.93;6.47;;;2.90;99.90;;;2.07;100.00;102062.06;4135293;28;20038;-68
2024/01/08 02:34:14;;;;;;;18.35;7.57;;;2.90;99.90;;;2.09;100.00;102066.28;4135544;28;20030;-68
2024/01/08 02:36:15;;;;;;;14.57;6.80;;;2.80;99.90;;;2.08;100.00;102069.84;4136648;28;20072;-68
2024/01/08 02:38:16;;;;;;;16.25;7.00;;;2.90;99.90;;;2.07;100.00;102062.06;4136612;28;20030;-68
2024/01/08 02:40:17;;;;;;;15.15;7.45;;;2.90;99.90;;;2.04;100.00;102064.81;4136252;28;20034;-68
2024/01/08 02:42:18;;;;;;;21.45;8.98;;;2.80;99.90;;;2.11;100.00;102064.50;4136554;28;20027;-68
2024/01/08 02:44:19;;;;;;;13.73;8.38;;;2.80;99.90;;;2.11;100.00;102059.28;4135580;28;20025;-68
2024/01/08 02:46:20;;;;;;;16.45;7.07;;;2.90;99.90;;;2.12;100.00;102062.72;4136604;28;20026;-68
2024/01/08 02:48:21;;;;;;;14.85;6.97;;;2.90;99.90;;;2.11;100.00;102059.28;4135158;28;20023;-68
2024/01/08 02:50:22;;;;;;;24.08;9.48;;;2.90;99.90;;;2.18;100.00;102059.84;4136540;28;20030;-68
2024/01/08 02:52:23;;;;;;;17.63;8.48;;;2.90;99.90;;;2.07;100.00;102060.31;4136362;28;20034;-68
2024/01/08 02:54:23;;;;;;;15.10;8.02;;;2.90;99.90;;;2.08;100.00;102054.22;4136167;28;20048;-68
2024/01/08 02:56:25;;;;;;;19.27;8.10;;;2.80;99.90;;;2.01;100.00;102042.38;4136090;28;20030;-68
2024/01/08 02:58:26;;;;;;;18.83;8.45;;;2.80;99.90;;;2.00;100.00;102048.50;4135763;28;20026;-68
2024/01/08 03:00:27;;;;;;;17.95;8.60;;;2.80;99.90;;;2.06;100.00;102053.41;4136281;28;20022;-68
2024/01/08 03:02:28;;;;;;;13.57;7.90;;;2.80;99.90;;;2.01;100.00;102041.53;4136240;28;20029;-68
2024/01/08 03:04:29;;;;;;;15.45;8.05;;;2.80;99.90;;;1.98;100.00;102042.53;4134951;28;20042;-68
2024/01/08 03:06:30;;;;;;;15.63;7.70;;;2.80;99.90;;;1.95;100.00;102041.81;4135529;28;20019;-68
2024/01/08 03:08:31;;;;;;;15.35;7.93;;;2.70;99.90;;;1.94;100.00;102046.16;4134666;28;20033;-68
2024/01/08 03:10:31;;;;;;;20.35;7.72;;;2.70;99.90;;;1.89;100.00;102049.88;4134652;28;20073;-69
2024/01/08 03:12:32;;;;;;;18.83;8.80;;;2.70;99.90;;;1.88;100.00;102045.63;4135876;28;20043;-68
2024/01/08 03:14:33;;;;;;;13.38;8.00;;;2.70;99.90;;;1.88;100.00;102041.25;4134859;28;20109;-68
2024/01/08 03:16:34;;;;;;;15.98;8.40;;;2.70;99.90;;;1.85;100.00;102036.16;4136335;28;20478;-68
2024/01/08 03:18:35;;;;;;;13.88;8.88;;;2.60;99.90;;;1.79;100.00;102036.47;4135157;28;20462;-68
2024/01/08 03:20:36;;;;;;;14.90;7.45;;;2.60;99.90;;;1.77;100.00;102051.28;4136087;28;20035;-68
2024/01/08 03:22:39;;;;;;;16.40;9.30;;;2.60;99.90;;;1.73;100.00;102041.09;4136120;28;20038;-68
2024/01/08 03:24:39;;;;;;;16.13;9.18;;;2.60;99.90;;;1.79;100.00;102053.84;4136095;28;20090;-68
2024/01/08 03:26:40;;;;;;;14.15;9.00;;;2.50;99.90;;;1.76;100.00;102048.78;4136170;28;20026;-68
2024/01/08 03:28:41;;;;;;;16.63;9.10;;;2.50;99.90;;;1.79;100.00;102038.22;4136007;28;20030;-68
2024/01/08 03:30:42;;;;;;;18.75;8.80;;;2.50;99.90;;;1.84;100.00;102039.72;4135884;28;20045;-68
2024/01/08 03:32:43;;;;;;;15.85;8.35;;;2.50;99.90;;;1.73;100.00;102044.56;4136030;28;20027;-68
2024/01/08 03:34:44;;;;;;;16.00;8.68;;;2.50;99.90;;;1.74;100.00;102041.00;4136203;28;20026;-68
2024/01/08 03:36:47;;;;;;;21.08;9.60;;;2.50;99.90;;;1.77;100.00;102040.88;4135939;28;20027;-68
2024/01/08 03:38:47;;;;;;;20.17;9.30;;;2.50;99.90;;;1.78;100.00;102039.97;4134661;28;20072;-68
2024/01/08 03:40:48;;;;;;;14.23;8.35;;;2.60;99.90;;;1.71;100.00;102037.69;4135804;28;20473;-68
2024/01/08 03:42:49;;;;;;;17.38;8.75;;;2.50;99.90;;;1.72;100.00;102029.84;4135937;28;20034;-68
2024/01/08 03:44:50;;;;;;;15.32;9.10;;;2.50;99.90;;;1.76;100.00;102036.63;4135904;28;20544;-68
2024/01/08 03:46:51;;;;;;;15.23;8.63;;;2.50;99.90;;;1.72;100.00;102040.25;4135953;28;20034;-68
2024/01/08 03:48:52;;;;;;;13.88;8.85;;;2.50;99.90;;;1.68;100.00;102039.53;4135981;28;20061;-68
2024/01/08 03:50:53;;;;;;;16.70;9.48;;;2.50;99.90;;;1.69;100.00;102040.38;4135938;28;20030;-68
2024/01/08 03:52:54;;;;;;;14.77;9.73;;;2.50;99.90;;;1.72;100.00;102045.44;4135824;28;20081;-68
2024/01/08 03:54:55;;;;;;;16.08;9.60;;;2.50;99.90;;;1.75;100.00;102050.53;4135700;28;20065;-68
2024/01/08 03:56:56;;;;;;;20.58;9.77;;;2.50;99.90;;;1.83;100.00;102051.00;4135907;28;20031;-68
2024/01/08 03:58:56;;;;;;;15.95;9.80;;;2.60;99.90;;;1.85;100.00;102048.38;4136084;28;20037;-68
2024/01/08 04:00:57;;;;;;;16.27;9.90;;;2.60;99.90;;;1.97;100.00;102056.44;4136155;28;20056;-68
2024/01/08 04:02:58;;;;;;;24.42;9.50;;;2.70;99.90;;;1.98;100.00;102057.28;4134440;28;20034;-68
2024/01/08 04:04:59;;;;;;;17.58;9.68;;;2.70;99.90;;;2.01;100.00;102045.00;4123139;28;20043;-68
2024/01/08 04:07:00;;;;;;;15.75;9.00;;;2.80;99.90;;;2.09;100.00;102048.06;4135832;28;20030;-68
2024/01/08 04:09:01;;;;;;;18.52;10.48;;;2.90;99.90;;;2.08;100.00;102059.41;4134768;28;20176;-68
2024/01/08 04:11:03;;;;;;;16.63;9.38;;;2.90;99.90;;;2.11;100.00;102059.28;4151157;28;20049;-68
2024/01/08 04:13:04;;;;;;;17.60;10.00;;;2.90;99.90;;;2.13;100.00;102056.59;4138799;28;20711;-68
2024/01/08 04:15:06;;;;;;;16.73;9.63;;;3.00;99.90;;;2.16;100.00;102057.31;4137624;28;20500;-68
2024/01/08 04:17:07;;;;;;;14.88;9.27;;;3.00;99.90;;;2.18;100.00;102054.66;4138829;28;20022;-68
2024/01/08 04:19:08;;;;;;;16.02;8.48;;;3.00;99.90;;;2.21;100.00;102057.94;4138599;28;20544;-68
2024/01/08 04:21:09;;;;;;;16.35;10.02;;;3.00;99.90;;;2.17;100.00;102058.16;4138770;28;20018;-68
2024/01/08 04:23:10;;;;;;;16.35;8.77;;;3.00;99.90;;;2.21;100.00;102051.91;4137578;28;20030;-68
2024/01/08 04:25:11;;;;;;;19.98;10.10;;;3.10;99.90;;;2.18;100.00;102060.66;4138376;28;20041;-68
2024/01/08 04:27:11;;;;;;;17.33;9.90;;;3.00;99.90;;;2.22;100.00;102058.78;4137379;28;20035;-68
2024/01/08 04:29:12;;;;;;;15.48;10.18;;;3.10;99.90;;;2.18;100.00;102055.47;4138450;28;20486;-68
2024/01/08 04:31:18;;;;;;;16.80;9.68;;;3.00;99.90;;;2.22;100.00;102062.22;4138612;28;20486;-68
2024/01/08 04:33:19;;;;;;;15.48;9.63;;;3.00;99.90;;;2.21;100.00;102055.31;4138472;28;20062;-68
2024/01/08 04:35:20;;;;;;;18.75;10.82;;;3.10;99.90;;;2.19;100.00;102059.78;4137210;28;20057;-68
2024/01/08 04:37:21;;;;;;;21.73;10.63;;;3.00;99.90;;;2.23;100.00;102069.13;4138306;28;20389;-68
2024/01/08 04:39:22;;;;;;;15.38;10.38;;;3.10;99.90;;;2.12;100.00;102058.34;4137106;28;20033;-68
2024/01/08 04:41:23;;;;;;;22.38;10.38;;;3.00;99.90;;;2.14;100.00;102063.50;4138364;28;20405;-68
2024/01/08 04:43:23;;;;;;;17.92;9.77;;;3.10;99.90;;;2.22;100.00;102061.38;4138398;28;20026;-68
2024/01/08 04:45:24;;;;;;;17.40;10.45;;;3.00;99.90;;;2.18;100.00;102068.47;4138239;28;20026;-68
2024/01/08 04:47:25;;;;;;;17.63;10.50;;;3.00;99.90;;;2.14;100.00;102066.94;4137389;28;20030;-68
2024/01/08 04:49:26;;;;;;;18.48;12.05;;;3.00;99.90;;;2.18;100.00;102065.88;4138281;28;20504;-68
2024/01/08 04:51:27;;;;;;;17.25;10.80;;;3.00;99.90;;;2.15;100.00;102071.22;4137937;28;20030;-68
2024/01/08 04:53:28;;;;;;;18.55;11.32;;;3.00;99.90;;;2.10;100.00;102060.19;4120710;28;20030;-68
2024/01/08 04:55:28;;;;;;;17.08;11.15;;;3.00;99.90;;;2.17;100.00;102061.59;4138039;28;20031;-68
2024/01/08 04:57:30;;;;;;;18.13;10.63;;;3.10;99.90;;;2.28;100.00;102070.66;4138368;28;20023;-68
2024/01/08 04:59:31;;;;;;;20.20;11.60;;;3.00;99.90;;;2.20;100.00;102071.88;4138061;28;20098;-68
2024/01/08 05:01:37;;;;;;;17.80;11.02;;;3.10;99.90;;;2.18;100.00;102071.06;4136701;28;20043;-68
2024/01/08 05:03:38;;;;;;;17.90;11.20;;;3.10;99.90;;;2.22;100.00;102083.06;4138106;28;20038;-69
2024/01/08 05:05:39;;;;;;;18.65;11.45;;;3.10;99.90;;;2.28;100.00;102078.47;4138035;28;20023;-68
2024/01/08 05:07:40;;;;;;;16.45;10.20;;;3.10;99.90;;;2.23;100.00;102084.75;4120530;28;20023;-68
2024/01/08 05:09:40;;;;;;;19.13;12.13;;;3.10;99.90;;;2.27;100.00;102082.00;4137678;28;20019;-68
2024/01/08 05:11:41;;;;;;;18.92;11.32;;;3.10;99.90;;;2.31;100.00;102083.53;4136717;28;20050;-68
2024/01/08 05:13:42;;;;;;;15.70;10.73;;;3.10;99.90;;;2.31;100.00;102087.00;4137770;28;20037;-68
2024/01/08 05:15:43;;;;;;;23.50;12.15;;;3.10;99.90;;;2.30;100.00;102084.47;4137868;28;20548;-68
2024/01/08 05:17:44;;;;;;;19.42;12.25;;;3.10;99.90;;;2.33;100.00;102090.34;4120536;28;20572;-68
2024/01/08 05:19:45;;;;;;;17.70;11.10;;;3.10;99.90;;;2.34;100.00;102092.06;4137872;28;20026;-68
2024/01/08 05:21:45;;;;;;;15.65;10.23;;;3.20;99.90;;;2.33;100.00;102092.16;4136427;28;20030;-68
2024/01/08 05:23:46;;;;;;;17.40;11.35;;;3.20;99.90;;;2.31;100.00;102089.59;4136626;28;20093;-68
2024/01/08 05:25:47;;;;;;;16.83;11.90;;;3.20;99.90;;;2.31;100.00;102092.19;4137355;28;20397;-68
2024/01/08 05:27:48;;;;;;;18.27;11.32;;;3.20;99.90;;;2.36;100.00;102094.59;4136521;28;20045;-68
2024/01/08 05:29:49;;;;;;;18.20;11.27;;;3.20;99.90;;;2.37;100.00;102106.69;4136446;28;20023;-68
2024/01/08 05:31:50;;;;;;;19.77;12.25;;;3.20;99.90;;;2.26;100.00;102103.75;4137786;28;20022;-68
2024/01/08 05:33:52;;;;;;;19.38;11.07;;;3.10;99.90;;;2.26;100.00;102096.78;4137499;28;20033;-68
2024/01/08 05:35:53;;;;;;;17.48;12.48;;;3.10;99.90;;;2.28;100.00;102100.16;4136483;28;20197;-68
2024/01/08 05:37:55;;;;;;;18.33;11.70;;;3.10;99.90;;;2.27;100.00;102100.22;4137741;28;20429;-68
2024/01/08 05:39:56;;;;;;;18.88;12.63;;;3.10;99.90;;;2.26;100.00;102104.59;4137246;28;20038;-68
2024/01/08 05:41:56;;;;;;;17.77;11.65;;;3.10;99.90;;;2.23;100.00;102104.72;4136037;28;20030;-68
2024/01/08 05:43:57;;;;;;;18.95;12.75;;;3.10;99.90;;;2.27;100.00;102113.25;4136250;28;20072;-68
2024/01/08 05:45:58;;;;;;;18.52;12.07;;;3.10;99.90;;;2.25;100.00;102115.91;4137420;28;20023;-68
2024/01/08 05:47:59;;;;;;;18.02;12.32;;;3.10;99.90;;;2.26;100.00;102119.34;4137375;28;20034;-68
2024/01/08 05:50:05;;;;;;;19.23;12.63;;;3.10;99.90;;;2.28;100.00;102123.56;4152135;28;20021;-68
2024/01/08 05:52:06;;;;;;;19.10;11.98;;;3.10;99.90;;;2.20;100.00;102121.34;4137344;28;20041;-69
2024/01/08 05:54:07;;;;;;;20.85;12.85;;;3.10;99.90;;;2.22;100.00;102129.91;4137026;28;20027;-69
2024/01/08 05:56:08;;;;;;;17.85;11.63;;;3.10;99.90;;;2.20;100.00;102115.28;4135931;28;20026;-69
2024/01/08 05:58:08;;;;;;;19.33;13.45;;;3.10;99.90;;;2.21;100.00;102132.59;4152042;28;20072;-68
2024/01/08 06:00:10;;;;;;;18.52;12.07;;;3.10;99.90;;;2.24;100.00;102138.50;4135807;28;20027;-68
2024/01/08 06:02:11;;;;;;;21.13;14.02;;;3.10;99.90;;;2.10;100.00;102134.81;4137252;28;20030;-68
2024/01/08 06:04:11;;;;;;;22.95;13.02;;;3.00;99.90;;;2.14;100.00;102136.38;4137070;28;20050;-68
2024/01/08 06:06:13;;;;;;;19.33;12.27;;;3.00;99.90;;;2.04;100.00;102130.72;4135842;28;20517;-68
2024/01/08 06:08:14;;;;;;;21.65;12.82;;;3.00;99.90;;;2.10;100.00;102142.63;4137148;28;20054;-68
2024/01/08 06:10:15;;;;;;;18.58;12.23;;;2.90;99.90;;;1.93;100.00;102137.31;4136649;28;20061;-68
2024/01/08 06:12:16;;;;;;;18.55;11.90;;;2.90;99.90;;;1.91;100.00;102134.75;4136870;28;20065;-68
2024/01/08 06:14:17;;;;;;;21.17;12.63;;;2.90;99.90;;;1.89;100.00;102144.41;4135555;28;20031;-68
2024/01/08 06:16:18;;;;;;;16.05;11.32;;;2.80;99.90;;;1.91;100.00;102134.75;4136993;28;20500;-67
2024/01/08 06:18:19;;;;;;;20.23;11.63;;;2.80;99.90;;;1.84;100.00;102143.78;4135792;28;20588;-68
2024/01/08 06:20:19;;;;;;;22.15;13.50;;;2.70;99.90;;;1.87;100.00;102146.25;4136846;28;20106;-68
2024/01/08 06:22:20;;;;;;;20.50;12.98;;;2.70;99.90;;;1.85;100.00;102155.03;4136853;28;20041;-68
2024/01/08 06:24:21;;;;;;;23.60;12.85;;;2.70;99.90;;;1.75;100.00;102149.38;4136609;28;20536;-68
2024/01/08 06:26:22;;;;;;;20.77;13.98;;;2.70;99.90;;;1.72;100.00;102148.66;4135128;28;20027;-68
2024/01/08 06:28:23;;;;;;;20.13;12.70;;;2.60;99.90;;;1.74;100.00;102157.22;4136832;28;20034;-68
2024/01/08 06:30:24;;;;;;;19.98;12.65;;;2.60;99.90;;;1.66;100.00;102162.75;4137485;28;20038;-68
2024/01/08 06:32:25;;;;;;;21.27;12.77;;;2.60;99.90;;;1.71;100.00;102163.41;4136551;28;20497;-68
2024/01/08 06:34:26;;;;;;;22.48;13.77;;;2.60;99.90;;;1.65;100.00;102166.25;4134898;28;20037;-68
2024/01/08 06:36:26;;;;;;;20.20;13.35;;;2.50;99.90;;;1.64;100.00;102162.81;4136739;28;20046;-68
2024/01/08 06:38:27;;;;;;;22.13;12.73;;;2.50;99.90;;;1.58;100.00;102162.25;4136624;28;20493;-68
2024/01/08 06:40:28;;;;;;;22.75;13.35;;;2.50;99.90;;;1.55;100.00;102163.19;4136108;28;20628;-68
2024/01/08 06:42:29;;;;;;;21.85;13.52;;;2.50;99.90;;;1.57;100.00;102163.16;4136622;28;20073;-67
2024/01/08 06:44:30;;;;;;;23.75;14.20;;;2.50;99.90;;;1.60;100.00;102174.28;4135372;28;20061;-68
2024/01/08 06:46:31;;;;;;;21.73;13.38;;;2.50;99.90;;;1.51;100.00;102159.03;4136486;28;20033;-68
2024/01/08 06:48:32;;;;;;;22.38;13.15;;;2.50;99.90;;;1.51;100.00;102172.03;4136331;28;20057;-68
2024/01/08 06:50:32;;;;;;;22.73;13.38;;;2.40;99.90;;;1.44;100.00;102161.94;4136353;28;20030;-68
2024/01/08 06:52:33;;;;;;;23.35;14.15;;;2.40;99.90;;;1.46;100.00;102168.81;4136399;28;20037;-68
2024/01/08 06:54:34;;;;;;;20.50;12.35;;;2.40;99.90;;;1.41;100.00;102165.53;4136201;28;20053;-68
2024/01/08 06:56:35;;;;;;;23.98;13.80;;;2.30;99.90;;;1.39;100.00;102161.31;4135079;28;20510;-68
2024/01/08 06:58:36;;;;;;;21.67;13.02;;;2.30;99.90;;;1.39;100.00;102166.50;4136446;28;20026;-68
2024/01/08 07:00:37;;;;;;;21.77;13.18;;;2.30;99.90;;;1.39;100.00;102164.75;4135022;28;20034;-67
2024/01/08 07:02:38;;;;;;;24.40;13.98;;;2.30;99.90;;;1.36;100.00;102172.66;4135014;28;20018;-68
2024/01/08 07:04:38;;;;;;;19.48;12.85;;;2.20;99.90;;;1.29;100.00;102154.78;4135017;28;20033;-68
2024/01/08 07:06:39;;;;;;;22.05;14.05;;;2.20;99.90;;;1.31;100.00;102166.81;4136366;28;20027;-68
2024/01/08 07:08:40;;;;;;;22.13;13.65;;;2.20;99.90;;;1.24;100.00;102169.72;4136178;28;20085;-67
2024/01/08 07:10:41;;;;;;;23.13;14.35;;;2.10;99.90;;;1.22;100.00;102168.94;4136676;28;20402;-68
2024/01/08 07:12:42;;;;;;;26.33;15.27;;;2.10;99.90;;;1.18;100.00;102170.81;4138026;28;20030;-67
2024/01/08 07:14:46;;;;;;;23.60;13.40;;;2.10;99.90;;;1.13;100.00;102166.72;4134966;28;20401;-67
2024/01/08 07:16:47;;;;;;;24.92;12.27;;;2.00;99.90;;;1.12;100.00;102178.84;4134997;28;20081;-68
2024/01/08 07:18:48;;;;;;;25.30;15.07;;;2.00;99.90;;;1.06;100.00;102172.16;4135731;28;20441;-68
2024/01/08 07:20:49;;;;;;;22.98;13.93;;;2.00;99.90;;;0.99;100.00;102173.28;4134512;28;20022;-68
2024/01/08 07:22:50;;;;;;;22.95;13.82;;;1.90;99.90;;;0.93;100.00;102170.91;4134052;28;20026;-68
2024/01/08 07:24:51;;;;;;;23.65;13.18;;;1.90;99.90;;;0.95;100.00;102171.72;4134569;28;20029;-68
2024/01/08 07:26:51;;;;;;;24.27;13.68;;;1.90;99.90;;;0.95;100.00;102176.94;4134828;28;20034;-67
2024/01/08 07:28:52;;;;;;;26.20;14.60;;;1.90;99.90;;;0.90;100.00;102186.63;4134858;28;20061;-68
2024/01/08 07:30:53;;;;;;;21.83;13.13;;;1.80;99.90;;;0.87;100.00;102189.34;4134869;28;20587;-68
2024/01/08 07:32:54;;;;;;;23.38;14.07;;;1.80;99.90;;;0.88;100.00;102204.03;4135985;28;20038;-68
2024/01/08 07:34:55;;;;;;;23.58;13.70;;;1.80;99.90;;;0.81;100.00;102194.78;4134893;28;20036;-68
2024/01/08 07:36:56;;;;;;;24.02;13.38;;;1.80;99.90;;;0.83;100.00;102189.53;4135994;28;20018;-68
2024/01/08 07:38:57;;;;;;;23.13;14.32;;;1.70;99.90;;;0.82;100.00;102193.88;4136112;28;20030;-67
2024/01/08 07:40:59;;;;;;;20.25;12.57;;;1.70;99.90;;;0.82;100.00;102200.81;4134799;28;20027;-68
2024/01/08 07:43:00;;;;;;;25.40;14.18;;;1.70;99.90;;;0.78;100.00;102205.28;4134627;28;20030;-68
2024/01/08 07:45:01;;;;;;;24.77;13.75;;;1.70;99.90;;;0.72;100.00;102199.50;4136059;28;20033;-67
2024/01/08 07:47:03;;;;;;;21.23;12.75;;;1.60;99.90;;;0.53;100.00;102205.38;4124898;28;20501;-68
2024/01/08 07:49:04;;;;;;;20.55;13.02;;;1.50;99.90;;;0.39;100.00;102211.94;4138018;28;20030;-67
2024/01/08 07:51:05;;;;;;;21.95;13.50;;;1.30;99.90;;;0.21;100.00;102212.63;4139205;28;20026;-68
2024/01/08 07:53:06;;;;;;;22.77;14.27;;;1.20;99.90;;;0.11;100.00;102229.41;4139152;28;20033;-68
2024/01/08 07:55:08;;;;;;;26.17;14.70;;;1.10;99.90;;;-0.06;100.00;102228.22;4138939;28;20403;-67
2024/01/08 07:57:09;;;;;;;23.73;14.68;;;1.00;99.90;;;-0.13;100.00;102237.13;4139238;28;20021;-67
2024/01/08 07:59:09;;;;;;;24.48;14.90;;;0.80;99.90;;;-0.20;100.00;102233.03;4139005;28;20478;-68
2024/01/08 08:01:12;;;;;;;25.23;14.43;;;0.80;99.90;;;-0.28;100.00;102239.38;4139098;28;20492;-68
2024/01/08 08:03:13;;;;;;;23.20;13.32;;;0.70;99.90;;;-0.34;100.00;102243.00;4138748;28;20026;-68
2024/01/08 08:05:14;;;;;;;28.70;15.38;;;0.60;99.90;;;-0.38;100.00;102238.81;4139079;28;20038;-68
2024/01/08 08:07:15;;;;;;;21.75;13.65;;;0.50;99.90;;;-0.43;100.00;102237.28;4137729;28;20057;-68
2024/01/08 08:09:16;;;;;;;25.92;14.50;;;0.50;99.90;;;-0.46;100.00;102246.00;4138566;28;20022;-68
2024/01/08 08:11:17;;;;;;;27.55;15.23;;;0.50;99.90;;;-0.46;100.00;102247.75;4138599;28;20058;-68
2024/01/08 08:13:18;;;;;;;23.88;14.73;;;0.50;99.90;;;-0.51;100.00;102258.28;4138827;28;20033;-68
2024/01/08 08:15:20;;;;;;;29.95;16.05;;;0.40;99.90;;;-0.53;100.00;102249.69;4138825;28;20037;-68
2024/01/08 08:17:21;;;;;;;27.00;15.55;;;0.40;99.90;;;-0.60;100.00;102248.19;4137594;28;20026;-68
2024/01/08 08:19:22;;;;;;;26.45;14.25;;;0.40;99.90;;;-0.60;100.00;102250.78;4137501;28;20022;-68
2024/01/08 08:21:23;;;;;;;27.17;15.00;;;0.40;99.90;;;-0.63;100.00;102259.47;4137735;28;20521;-68